Chalmette, LA (70044)

11:53 PM CDT on October 01, 2014 (GMT -0500)
HOV/BCO/BCEL | Change Station
CLOSE
Current Station
Personal Weather Station
Location: Belle Chasse, LA
Elevation: 36 ft
Nearby Weather Stations

Elev 36 ft 29.89 °N, 89.98 °W | Updated 44 seconds ago

Partly Cloudy
Partly Cloudy
77.1 °F
Feels Like 78 °F
N
2.0
Wind Variable Wind from SE
Gusts 5.0 mph

Today
High -- | Low -- °F
--% Chance of Precip.
Yesterday
High -- | Low -- °F
Precip. -- in
6:53 AM 6:45 PM
First Quarter, 54% visible
Pressure 29.93 in
Visibility 10.0 miles
Clouds Clear
Heat Index 78 °F
Dew Point 76 °F
Humidity 96%
Rainfall 0.21 in
Snow Depth Not available.
UV 0 out of 12
Pollen 6.70 out of 12
PM2.5 Good
Flu Activity Not available.
METAR KNEW 020353Z AUTO 14008KT 10SM CLR 26/24 A2995 RMK AO2 SLP135 T02560239 TSNO

More Conditions Fewer Conditions

Pressure 29.93 in
Visibility 10.0 miles
Clouds Clear
Heat Index 78 °F
Dew Point 76 °F
Humidity 96%
Rainfall 0.21 in
Snow Depth Not available.
UV 0 out of 12
Pollen 6.70 out of 12
PM2.5 Good
Flu Activity Not available.
METAR KNEW 020353Z AUTO 14008KT 10SM CLR 26/24 A2995 RMK AO2 SLP135 T02560239 TSNO

More Conditions Fewer Conditions

10-Day Weather Forecast

Almanac

Astronomy

Oct. 01, 2014 Rise Set
Actual Time 6:53 AM CDT 6:45 PM CDT
Civil Twilight 6:29 AM CDT 7:09 PM CDT
Nautical Twilight 6:01 AM CDT 7:36 PM CDT
Astronomical Twilight 5:33 AM CDT 8:04 PM CDT
Moon 1:36 PM CDT (10/1) No Moon Set
Length of Visible Light 12h 39m
Length of Day
11h 52m
Tomorrow will be 1m 47s shorter.
First Quarter, 54% of the Moon is Illuminated
Oct 2
First Quarter
Oct 8
Full
Oct 15
Last Quarter
Oct 23
New
Oct 30
First Quarter

Yesterday's Extremes

State Highs State Lows

Community

WunderPhotos

Upload Photos

1,758,192 photos uploaded!

Nearby

Air Quality

  Air Quality AQ Index Pollutant
Yesterday Good
OZONE
Yesterday Good
PM2.5
Current Good
PM2.5
Wednesday Good
PM2.5
Wednesday Good
OZONE
Thursday Good
OZONE
Thursday Good
PM2.5
Friday Good
OZONE
Friday Good
PM2.5

Snow Depth

Station Depth Elevation
No new snow has been reported.

Earthquake Activity

City Distance Mag. Time & Date
No recent earthquake activity has been reported nearby.
Minimum magnitude displayed is 2.5.

Coastal Water Temperatures

Place Temperature
Shell Beach, LA 75.9 °F
New Canal, LA 77.0 °F

Nearby Weather Stations